sensor_id;sensor_type;location;lat;lon;timestamp;temperature;humidity
5023;DHT22;2530;47.990;7.866;2023-03-14T00:00:53;11.50;99.90
5023;DHT22;2530;47.990;7.866;2023-03-14T00:03:18;11.40;99.90
5023;DHT22;2530;47.990;7.866;2023-03-14T00:05:44;11.30;99.90
5023;DHT22;2530;47.990;7.866;2023-03-14T00:08:09;11.10;99.90
5023;DHT22;2530;47.990;7.866;2023-03-14T00:10:36;11.10;99.90
5023;DHT22;2530;47.990;7.866;2023-03-14T00:13:02;11.10;99.90
5023;DHT22;2530;47.990;7.866;2023-03-14T00:15:27;11.30;99.90
5023;DHT22;2530;47.990;7.866;2023-03-14T00:17:53;11.40;99.90
5023;DHT22;2530;47.990;7.866;2023-03-14T00:20:18;11.60;78.70
5023;DHT22;2530;47.990;7.866;2023-03-14T00:22:44;11.60;99.90
5023;DHT22;2530;47.990;7.866;2023-03-14T00:25:10;11.60;99.90
5023;DHT22;2530;47.990;7.866;2023-03-14T00:27:36;11.60;99.90
5023;DHT22;2530;47.990;7.866;2023-03-14T00:30:02;11.70;1.00
5023;DHT22;2530;47.990;7.866;2023-03-14T00:32:28;11.80;1.00
5023;DHT22;2530;47.990;7.866;2023-03-14T00:34:54;11.90;1.00
5023;DHT22;2530;47.990;7.866;2023-03-14T00:37:19;12.00;1.00
5023;DHT22;2530;47.990;7.866;2023-03-14T00:39:45;11.90;1.00
5023;DHT22;2530;47.990;7.866;2023-03-14T00:42:10;12.10;99.90
5023;DHT22;2530;47.990;7.866;2023-03-14T00:44:36;12.10;1.00
5023;DHT22;2530;47.990;7.866;2023-03-14T00:47:02;12.10;99.90
5023;DHT22;2530;47.990;7.866;2023-03-14T00:49:27;12.10;99.90
5023;DHT22;2530;47.990;7.866;2023-03-14T00:51:53;12.10;99.90
5023;DHT22;2530;47.990;7.866;2023-03-14T00:54:19;12.10;99.90
5023;DHT22;2530;47.990;7.866;2023-03-14T00:56:44;12.10;99.90
5023;DHT22;2530;47.990;7.866;2023-03-14T00:59:10;11.60;99.90
5023;DHT22;2530;47.990;7.866;2023-03-14T01:01:36;11.90;1.00
5023;DHT22;2530;47.990;7.866;2023-03-14T01:04:02;11.90;99.90
5023;DHT22;2530;47.990;7.866;2023-03-14T01:06:28;11.80;1.00
5023;DHT22;2530;47.990;7.866;2023-03-14T01:08:55;11.70;1.00
5023;DHT22;2530;47.990;7.866;2023-03-14T01:11:24;11.70;1.00
5023;DHT22;2530;47.990;7.866;2023-03-14T01:13:50;11.70;1.00
5023;DHT22;2530;47.990;7.866;2023-03-14T01:16:17;11.80;1.00
5023;DHT22;2530;47.990;7.866;2023-03-14T01:18:44;11.80;1.00
5023;DHT22;2530;47.990;7.866;2023-03-14T01:21:25;11.80;99.90
5023;DHT22;2530;47.990;7.866;2023-03-14T01:23:53;11.80;99.90
5023;DHT22;2530;47.990;7.866;2023-03-14T01:26:21;11.80;99.90
5023;DHT22;2530;47.990;7.866;2023-03-14T01:28:48;11.80;99.90
5023;DHT22;2530;47.990;7.866;2023-03-14T01:31:15;11.80;1.00
5023;DHT22;2530;47.990;7.866;2023-03-14T01:33:41;11.70;99.90
5023;DHT22;2530;47.990;7.866;2023-03-14T01:36:07;11.70;1.00
5023;DHT22;2530;47.990;7.866;2023-03-14T01:38:34;11.50;1.00
5023;DHT22;2530;47.990;7.866;2023-03-14T01:41:01;11.50;1.00
5023;DHT22;2530;47.990;7.866;2023-03-14T01:43:27;11.40;1.00
5023;DHT22;2530;47.990;7.866;2023-03-14T01:49:26;11.50;1.00
5023;DHT22;2530;47.990;7.866;2023-03-14T01:54:19;10.70;99.90
5023;DHT22;2530;47.990;7.866;2023-03-14T01:56:53;10.60;99.90
5023;DHT22;2530;47.990;7.866;2023-03-14T01:59:19;10.50;99.90
5023;DHT22;2530;47.990;7.866;2023-03-14T02:01:46;10.50;99.90
5023;DHT22;2530;47.990;7.866;2023-03-14T02:04:14;10.50;99.90
5023;DHT22;2530;47.990;7.866;2023-03-14T02:07:12;10.50;99.90
5023;DHT22;2530;47.990;7.866;2023-03-14T02:09:39;10.60;99.90
5023;DHT22;2530;47.990;7.866;2023-03-14T02:12:06;10.60;99.90
5023;DHT22;2530;47.990;7.866;2023-03-14T02:14:34;10.60;99.90
5023;DHT22;2530;47.990;7.866;2023-03-14T02:17:02;10.60;99.90
5023;DHT22;2530;47.990;7.866;2023-03-14T02:19:44;10.70;99.90
5023;DHT22;2530;47.990;7.866;2023-03-14T02:22:14;10.70;99.90
5023;DHT22;2530;47.990;7.866;2023-03-14T02:24:58;10.80;99.90
5023;DHT22;2530;47.990;7.866;2023-03-14T02:27:25;10.80;1.00
5023;DHT22;2530;47.990;7.866;2023-03-14T02:29:58;11.00;1.00
5023;DHT22;2530;47.990;7.866;2023-03-14T02:32:26;11.10;1.00
5023;DHT22;2530;47.990;7.866;2023-03-14T02:34:55;11.10;1.00
5023;DHT22;2530;47.990;7.866;2023-03-14T02:37:24;11.20;99.90
5023;DHT22;2530;47.990;7.866;2023-03-14T02:39:52;11.30;99.90
5023;DHT22;2530;47.990;7.866;2023-03-14T02:42:18;11.40;99.90
5023;DHT22;2530;47.990;7.866;2023-03-14T02:47:31;11.40;1.00
5023;DHT22;2530;47.990;7.866;2023-03-14T02:50:03;11.40;1.00
5023;DHT22;2530;47.990;7.866;2023-03-14T02:52:29;11.40;99.90
5023;DHT22;2530;47.990;7.866;2023-03-14T02:54:55;11.40;29.70
5023;DHT22;2530;47.990;7.866;2023-03-14T02:57:20;11.40;99.90
5023;DHT22;2530;47.990;7.866;2023-03-14T02:59:46;11.40;99.90
5023;DHT22;2530;47.990;7.866;2023-03-14T03:02:11;11.40;1.00
5023;DHT22;2530;47.990;7.866;2023-03-14T03:04:37;11.40;99.90
5023;DHT22;2530;47.990;7.866;2023-03-14T03:07:02;11.30;1.00
5023;DHT22;2530;47.990;7.866;2023-03-14T03:09:28;11.40;99.90
5023;DHT22;2530;47.990;7.866;2023-03-14T03:11:53;11.30;99.90
5023;DHT22;2530;47.990;7.866;2023-03-14T03:14:19;11.40;1.00
5023;DHT22;2530;47.990;7.866;2023-03-14T03:16:44;11.40;99.90
5023;DHT22;2530;47.990;7.866;2023-03-14T03:19:10;11.40;1.00
5023;DHT22;2530;47.990;7.866;2023-03-14T03:21:35;11.30;1.00
5023;DHT22;2530;47.990;7.866;2023-03-14T03:24:01;11.40;1.00
5023;DHT22;2530;47.990;7.866;2023-03-14T03:26:26;11.40;99.90
5023;DHT22;2530;47.990;7.866;2023-03-14T03:28:52;11.40;99.90
5023;DHT22;2530;47.990;7.866;2023-03-14T03:31:17;11.30;99.90
5023;DHT22;2530;47.990;7.866;2023-03-14T03:33:43;11.30;1.00
5023;DHT22;2530;47.990;7.866;2023-03-14T03:36:09;11.40;99.90
5023;DHT22;2530;47.990;7.866;2023-03-14T03:38:35;11.40;1.00
5023;DHT22;2530;47.990;7.866;2023-03-14T03:41:05;11.40;1.00
5023;DHT22;2530;47.990;7.866;2023-03-14T03:43:31;11.30;99.90
5023;DHT22;2530;47.990;7.866;2023-03-14T03:45:57;11.30;99.90
5023;DHT22;2530;47.990;7.866;2023-03-14T03:48:22;11.30;1.00
5023;DHT22;2530;47.990;7.866;2023-03-14T03:50:48;11.30;99.90
5023;DHT22;2530;47.990;7.866;2023-03-14T03:53:13;11.40;30.60
5023;DHT22;2530;47.990;7.866;2023-03-14T03:55:42;11.30;99.90
5023;DHT22;2530;47.990;7.866;2023-03-14T03:58:08;11.30;1.00
5023;DHT22;2530;47.990;7.866;2023-03-14T04:00:33;11.30;1.00
5023;DHT22;2530;47.990;7.866;2023-03-14T04:02:59;11.30;99.90
5023;DHT22;2530;47.990;7.866;2023-03-14T04:05:25;11.30;99.90
5023;DHT22;2530;47.990;7.866;2023-03-14T04:07:51;11.30;1.00
5023;DHT22;2530;47.990;7.866;2023-03-14T04:10:16;11.30;99.90
5023;DHT22;2530;47.990;7.866;2023-03-14T04:12:42;11.40;1.00
5023;DHT22;2530;47.990;7.866;2023-03-14T04:15:08;11.40;1.00
5023;DHT22;2530;47.990;7.866;2023-03-14T04:17:34;11.40;99.90
5023;DHT22;2530;47.990;7.866;2023-03-14T04:19:59;11.40;1.00
5023;DHT22;2530;47.990;7.866;2023-03-14T04:22:24;11.40;32.70
5023;DHT22;2530;47.990;7.866;2023-03-14T04:24:50;11.40;99.90
5023;DHT22;2530;47.990;7.866;2023-03-14T04:27:15;11.30;1.00
5023;DHT22;2530;47.990;7.866;2023-03-14T04:29:42;11.40;7.90
5023;DHT22;2530;47.990;7.866;2023-03-14T04:32:08;11.40;1.00
5023;DHT22;2530;47.990;7.866;2023-03-14T04:34:33;11.40;99.90
5023;DHT22;2530;47.990;7.866;2023-03-14T04:36:59;11.50;99.90
5023;DHT22;2530;47.990;7.866;2023-03-14T04:39:24;11.40;99.90
5023;DHT22;2530;47.990;7.866;2023-03-14T04:41:50;11.40;99.90
5023;DHT22;2530;47.990;7.866;2023-03-14T04:44:15;11.40;1.00
5023;DHT22;2530;47.990;7.866;2023-03-14T04:46:41;11.40;1.00
5023;DHT22;2530;47.990;7.866;2023-03-14T04:49:06;11.40;99.90
5023;DHT22;2530;47.990;7.866;2023-03-14T04:51:32;11.40;99.90
5023;DHT22;2530;47.990;7.866;2023-03-14T04:53:57;11.40;1.00
5023;DHT22;2530;47.990;7.866;2023-03-14T04:56:23;11.30;1.00
5023;DHT22;2530;47.990;7.866;2023-03-14T04:58:49;11.30;1.00
5023;DHT22;2530;47.990;7.866;2023-03-14T05:01:15;11.30;1.00
5023;DHT22;2530;47.990;7.866;2023-03-14T05:03:40;11.30;1.00
5023;DHT22;2530;47.990;7.866;2023-03-14T05:06:06;11.10;1.00
5023;DHT22;2530;47.990;7.866;2023-03-14T05:08:31;11.40;1.00
5023;DHT22;2530;47.990;7.866;2023-03-14T05:10:58;11.40;1.00
5023;DHT22;2530;47.990;7.866;2023-03-14T05:13:23;11.30;1.00
5023;DHT22;2530;47.990;7.866;2023-03-14T05:15:49;11.30;21.10
5023;DHT22;2530;47.990;7.866;2023-03-14T05:18:16;11.30;3.00
5023;DHT22;2530;47.990;7.866;2023-03-14T05:20:41;11.30;99.90
5023;DHT22;2530;47.990;7.866;2023-03-14T05:23:09;11.40;99.90
5023;DHT22;2530;47.990;7.866;2023-03-14T05:25:35;11.40;99.90
5023;DHT22;2530;47.990;7.866;2023-03-14T05:28:00;11.30;1.00
5023;DHT22;2530;47.990;7.866;2023-03-14T05:30:26;11.30;99.90
5023;DHT22;2530;47.990;7.866;2023-03-14T05:32:53;11.40;50.90
5023;DHT22;2530;47.990;7.866;2023-03-14T05:35:19;11.50;1.00
5023;DHT22;2530;47.990;7.866;2023-03-14T05:37:45;11.40;1.00
5023;DHT22;2530;47.990;7.866;2023-03-14T05:40:10;11.40;1.00
5023;DHT22;2530;47.990;7.866;2023-03-14T05:42:36;11.40;1.00
5023;DHT22;2530;47.990;7.866;2023-03-14T05:45:02;11.50;1.00
5023;DHT22;2530;47.990;7.866;2023-03-14T05:47:28;11.50;1.00
5023;DHT22;2530;47.990;7.866;2023-03-14T05:49:53;11.50;1.00
5023;DHT22;2530;47.990;7.866;2023-03-14T05:52:19;11.50;1.00
5023;DHT22;2530;47.990;7.866;2023-03-14T05:54:44;11.60;1.00
5023;DHT22;2530;47.990;7.866;2023-03-14T05:57:10;11.60;1.00
5023;DHT22;2530;47.990;7.866;2023-03-14T05:59:35;11.50;1.00
5023;DHT22;2530;47.990;7.866;2023-03-14T06:02:01;11.60;1.00
5023;DHT22;2530;47.990;7.866;2023-03-14T06:04:27;11.50;1.00
5023;DHT22;2530;47.990;7.866;2023-03-14T06:06:52;11.60;1.00
5023;DHT22;2530;47.990;7.866;2023-03-14T06:09:18;11.60;1.00
5023;DHT22;2530;47.990;7.866;2023-03-14T06:11:45;11.50;1.00
5023;DHT22;2530;47.990;7.866;2023-03-14T06:14:11;11.50;1.00
5023;DHT22;2530;47.990;7.866;2023-03-14T06:16:37;11.60;1.00
5023;DHT22;2530;47.990;7.866;2023-03-14T06:19:02;11.60;1.00
5023;DHT22;2530;47.990;7.866;2023-03-14T06:21:28;11.60;99.90
5023;DHT22;2530;47.990;7.866;2023-03-14T06:23:53;11.60;99.90
5023;DHT22;2530;47.990;7.866;2023-03-14T06:26:19;11.60;1.00
5023;DHT22;2530;47.990;7.866;2023-03-14T06:28:45;11.70;99.90
5023;DHT22;2530;47.990;7.866;2023-03-14T06:31:10;11.70;99.90
5023;DHT22;2530;47.990;7.866;2023-03-14T06:33:36;11.70;99.90
5023;DHT22;2530;47.990;7.866;2023-03-14T06:36:01;11.80;99.90
5023;DHT22;2530;47.990;7.866;2023-03-14T06:38:27;11.70;1.00
5023;DHT22;2530;47.990;7.866;2023-03-14T06:40:52;11.70;99.90
5023;DHT22;2530;47.990;7.866;2023-03-14T06:43:18;11.80;99.90
5023;DHT22;2530;47.990;7.866;2023-03-14T06:45:43;11.90;99.90
5023;DHT22;2530;47.990;7.866;2023-03-14T06:48:09;11.90;99.90
5023;DHT22;2530;47.990;7.866;2023-03-14T06:50:34;11.90;99.90
5023;DHT22;2530;47.990;7.866;2023-03-14T06:53:00;11.90;99.90
5023;DHT22;2530;47.990;7.866;2023-03-14T06:55:25;12.00;99.90
5023;DHT22;2530;47.990;7.866;2023-03-14T06:57:51;12.00;99.90
5023;DHT22;2530;47.990;7.866;2023-03-14T07:00:17;12.10;1.00
5023;DHT22;2530;47.990;7.866;2023-03-14T07:02:42;12.10;1.00
5023;DHT22;2530;47.990;7.866;2023-03-14T07:05:08;12.20;1.00
5023;DHT22;2530;47.990;7.866;2023-03-14T07:07:35;12.30;1.00
5023;DHT22;2530;47.990;7.866;2023-03-14T07:10:01;12.40;1.00
5023;DHT22;2530;47.990;7.866;2023-03-14T07:12:26;12.30;1.00
5023;DHT22;2530;47.990;7.866;2023-03-14T07:14:52;12.40;1.00
5023;DHT22;2530;47.990;7.866;2023-03-14T07:17:17;12.50;1.00
5023;DHT22;2530;47.990;7.866;2023-03-14T07:19:43;12.50;1.00
5023;DHT22;2530;47.990;7.866;2023-03-14T07:22:08;12.40;1.00
5023;DHT22;2530;47.990;7.866;2023-03-14T07:24:34;12.50;1.00
5023;DHT22;2530;47.990;7.866;2023-03-14T07:26:59;12.50;1.00
5023;DHT22;2530;47.990;7.866;2023-03-14T07:29:25;12.50;1.00
5023;DHT22;2530;47.990;7.866;2023-03-14T07:31:50;12.60;1.00
5023;DHT22;2530;47.990;7.866;2023-03-14T07:34:16;12.70;1.00
5023;DHT22;2530;47.990;7.866;2023-03-14T07:36:41;12.60;1.00
5023;DHT22;2530;47.990;7.866;2023-03-14T07:39:07;12.70;1.00
5023;DHT22;2530;47.990;7.866;2023-03-14T07:41:33;12.60;1.00
5023;DHT22;2530;47.990;7.866;2023-03-14T07:43:58;12.50;1.00
5023;DHT22;2530;47.990;7.866;2023-03-14T07:46:24;12.60;1.00
5023;DHT22;2530;47.990;7.866;2023-03-14T07:48:49;12.50;1.00
5023;DHT22;2530;47.990;7.866;2023-03-14T07:51:15;12.50;1.00
5023;DHT22;2530;47.990;7.866;2023-03-14T07:53:41;12.50;1.00
5023;DHT22;2530;47.990;7.866;2023-03-14T07:56:08;12.40;1.00
5023;DHT22;2530;47.990;7.866;2023-03-14T07:58:33;12.30;1.00
5023;DHT22;2530;47.990;7.866;2023-03-14T08:00:59;12.30;1.00
5023;DHT22;2530;47.990;7.866;2023-03-14T08:03:25;12.20;96.30
5023;DHT22;2530;47.990;7.866;2023-03-14T08:05:50;12.20;99.90
5023;DHT22;2530;47.990;7.866;2023-03-14T08:08:16;12.20;99.90
5023;DHT22;2530;47.990;7.866;2023-03-14T08:10:42;12.20;99.90
5023;DHT22;2530;47.990;7.866;2023-03-14T08:13:09;12.20;99.90
5023;DHT22;2530;47.990;7.866;2023-03-14T08:15:35;12.10;99.90
5023;DHT22;2530;47.990;7.866;2023-03-14T08:18:02;12.10;99.90
5023;DHT22;2530;47.990;7.866;2023-03-14T08:20:28;12.10;1.00
5023;DHT22;2530;47.990;7.866;2023-03-14T08:22:58;12.00;1.00
5023;DHT22;2530;47.990;7.866;2023-03-14T08:25:25;12.00;1.00
5023;DHT22;2530;47.990;7.866;2023-03-14T08:27:51;11.90;99.90
5023;DHT22;2530;47.990;7.866;2023-03-14T08:30:18;11.80;1.00
5023;DHT22;2530;47.990;7.866;2023-03-14T08:32:44;11.80;99.90
5023;DHT22;2530;47.990;7.866;2023-03-14T08:35:10;11.90;99.90
5023;DHT22;2530;47.990;7.866;2023-03-14T08:37:36;11.80;1.00
5023;DHT22;2530;47.990;7.866;2023-03-14T08:40:02;11.70;1.00
5023;DHT22;2530;47.990;7.866;2023-03-14T08:42:32;11.70;11.10
5023;DHT22;2530;47.990;7.866;2023-03-14T08:44:58;11.60;1.00
5023;DHT22;2530;47.990;7.866;2023-03-14T08:47:24;11.60;99.90
5023;DHT22;2530;47.990;7.866;2023-03-14T08:49:49;11.60;99.90
5023;DHT22;2530;47.990;7.866;2023-03-14T08:52:15;11.50;1.00
5023;DHT22;2530;47.990;7.866;2023-03-14T08:54:44;11.50;99.90
5023;DHT22;2530;47.990;7.866;2023-03-14T08:57:10;11.60;99.90
5023;DHT22;2530;47.990;7.866;2023-03-14T08:59:36;11.60;1.00
5023;DHT22;2530;47.990;7.866;2023-03-14T09:02:02;11.80;1.00
5023;DHT22;2530;47.990;7.866;2023-03-14T09:04:29;12.00;1.00
5023;DHT22;2530;47.990;7.866;2023-03-14T09:06:55;12.00;99.90
5023;DHT22;2530;47.990;7.866;2023-03-14T09:09:20;12.10;99.90
5023;DHT22;2530;47.990;7.866;2023-03-14T09:11:47;12.10;99.90
5023;DHT22;2530;47.990;7.866;2023-03-14T09:14:12;11.90;1.00
5023;DHT22;2530;47.990;7.866;2023-03-14T09:16:39;11.90;99.90
5023;DHT22;2530;47.990;7.866;2023-03-14T09:19:04;11.90;1.00
5023;DHT22;2530;47.990;7.866;2023-03-14T09:21:31;11.90;99.90
5023;DHT22;2530;47.990;7.866;2023-03-14T09:23:56;11.80;1.00
5023;DHT22;2530;47.990;7.866;2023-03-14T09:26:22;11.80;99.90
5023;DHT22;2530;47.990;7.866;2023-03-14T09:28:47;11.90;99.90
5023;DHT22;2530;47.990;7.866;2023-03-14T09:31:14;11.80;1.00
5023;DHT22;2530;47.990;7.866;2023-03-14T09:33:40;11.80;99.90
5023;DHT22;2530;47.990;7.866;2023-03-14T09:36:06;11.90;99.90
5023;DHT22;2530;47.990;7.866;2023-03-14T09:38:33;11.90;99.90
5023;DHT22;2530;47.990;7.866;2023-03-14T09:41:01;11.90;99.90
5023;DHT22;2530;47.990;7.866;2023-03-14T09:43:30;11.90;20.60
5023;DHT22;2530;47.990;7.866;2023-03-14T09:45:58;11.90;99.90
5023;DHT22;2530;47.990;7.866;2023-03-14T09:48:32;11.90;1.00
5023;DHT22;2530;47.990;7.866;2023-03-14T09:51:01;11.90;99.90
5023;DHT22;2530;47.990;7.866;2023-03-14T09:53:43;11.90;1.00
5023;DHT22;2530;47.990;7.866;2023-03-14T09:56:28;11.90;1.00
5023;DHT22;2530;47.990;7.866;2023-03-14T09:59:00;11.90;1.00
5023;DHT22;2530;47.990;7.866;2023-03-14T10:01:32;11.70;99.90
5023;DHT22;2530;47.990;7.866;2023-03-14T10:04:10;11.70;1.00
5023;DHT22;2530;47.990;7.866;2023-03-14T10:06:38;11.60;1.00
5023;DHT22;2530;47.990;7.866;2023-03-14T10:09:04;11.50;99.90
5023;DHT22;2530;47.990;7.866;2023-03-14T10:11:30;11.30;1.00
5023;DHT22;2530;47.990;7.866;2023-03-14T10:14:10;11.20;1.00
5023;DHT22;2530;47.990;7.866;2023-03-14T10:16:43;11.10;1.00
5023;DHT22;2530;47.990;7.866;2023-03-14T10:19:14;11.20;1.00
5023;DHT22;2530;47.990;7.866;2023-03-14T10:21:42;11.10;1.00
5023;DHT22;2530;47.990;7.866;2023-03-14T10:26:48;11.20;99.90
5023;DHT22;2530;47.990;7.866;2023-03-14T10:29:14;11.20;99.90
5023;DHT22;2530;47.990;7.866;2023-03-14T10:32:03;11.30;99.90
5023;DHT22;2530;47.990;7.866;2023-03-14T10:34:32;11.30;99.90
5023;DHT22;2530;47.990;7.866;2023-03-14T10:37:07;11.30;99.90
5023;DHT22;2530;47.990;7.866;2023-03-14T10:39:49;11.30;99.90
5023;DHT22;2530;47.990;7.866;2023-03-14T10:42:29;11.20;99.90
5023;DHT22;2530;47.990;7.866;2023-03-14T10:47:54;11.20;1.00
5023;DHT22;2530;47.990;7.866;2023-03-14T10:50:29;11.10;1.00
5023;DHT22;2530;47.990;7.866;2023-03-14T10:52:56;11.10;1.00
5023;DHT22;2530;47.990;7.866;2023-03-14T10:55:24;11.10;1.00
5023;DHT22;2530;47.990;7.866;2023-03-14T10:57:51;11.10;1.00
5023;DHT22;2530;47.990;7.866;2023-03-14T11:00:20;11.10;1.00
5023;DHT22;2530;47.990;7.866;2023-03-14T11:05:58;11.00;1.00
5023;DHT22;2530;47.990;7.866;2023-03-14T11:08:31;11.00;1.00
5023;DHT22;2530;47.990;7.866;2023-03-14T11:11:20;11.00;1.00
5023;DHT22;2530;47.990;7.866;2023-03-14T11:14:07;11.00;1.00
5023;DHT22;2530;47.990;7.866;2023-03-14T11:19:34;10.90;1.00
5023;DHT22;2530;47.990;7.866;2023-03-14T11:22:21;10.90;20.40
5023;DHT22;2530;47.990;7.866;2023-03-14T11:27:48;10.60;99.90
5023;DHT22;2530;47.990;7.866;2023-03-14T11:33:13;10.50;99.90
5023;DHT22;2530;47.990;7.866;2023-03-14T11:35:53;10.40;99.90
5023;DHT22;2530;47.990;7.866;2023-03-14T11:41:10;8.50;99.90
5023;DHT22;2530;47.990;7.866;2023-03-14T11:43:39;7.10;99.90
5023;DHT22;2530;47.990;7.866;2023-03-14T11:49:26;7.40;99.90
5023;DHT22;2530;47.990;7.866;2023-03-14T11:51:45;7.60;99.90
5023;DHT22;2530;47.990;7.866;2023-03-14T11:54:15;7.60;99.90
5023;DHT22;2530;47.990;7.866;2023-03-14T11:57:01;7.70;99.40
5023;DHT22;2530;47.990;7.866;2023-03-14T11:59:33;7.90;1.00
5023;DHT22;2530;47.990;7.866;2023-03-14T12:02:19;8.00;1.00
5023;DHT22;2530;47.990;7.866;2023-03-14T12:04:51;8.00;57.90
5023;DHT22;2530;47.990;7.866;2023-03-14T12:10:05;8.40;1.00
5023;DHT22;2530;47.990;7.866;2023-03-14T12:12:31;8.40;1.00
5023;DHT22;2530;47.990;7.866;2023-03-14T12:15:01;8.50;1.00
5023;DHT22;2530;47.990;7.866;2023-03-14T12:17:36;8.50;99.90
5023;DHT22;2530;47.990;7.866;2023-03-14T12:22:45;8.80;78.70
5023;DHT22;2530;47.990;7.866;2023-03-14T12:25:15;9.00;99.90
5023;DHT22;2530;47.990;7.866;2023-03-14T12:30:30;9.30;99.90
5023;DHT22;2530;47.990;7.866;2023-03-14T12:43:33;10.30;10.40
5023;DHT22;2530;47.990;7.866;2023-03-14T12:48:45;11.40;1.00
5023;DHT22;2530;47.990;7.866;2023-03-14T12:51:17;11.70;1.00
5023;DHT22;2530;47.990;7.866;2023-03-14T13:02:28;10.10;1.00
5023;DHT22;2530;47.990;7.866;2023-03-14T13:05:14;10.00;1.00
5023;DHT22;2530;47.990;7.866;2023-03-14T13:15:33;9.50;99.90
5023;DHT22;2530;47.990;7.866;2023-03-14T13:18:47;9.10;62.50
5023;DHT22;2530;47.990;7.866;2023-03-14T13:20:55;9.20;1.00
5023;DHT22;2530;47.990;7.866;2023-03-14T13:23:23;9.20;99.90
5023;DHT22;2530;47.990;7.866;2023-03-14T13:25:49;9.20;1.00
5023;DHT22;2530;47.990;7.866;2023-03-14T13:28:16;9.40;99.90
5023;DHT22;2530;47.990;7.866;2023-03-14T13:30:44;9.60;1.00
5023;DHT22;2530;47.990;7.866;2023-03-14T13:33:21;9.60;99.90
5023;DHT22;2530;47.990;7.866;2023-03-14T13:36:09;9.70;23.10
5023;DHT22;2530;47.990;7.866;2023-03-14T13:38:36;9.60;1.00
5023;DHT22;2530;47.990;7.866;2023-03-14T13:41:06;9.60;1.00
5023;DHT22;2530;47.990;7.866;2023-03-14T13:43:40;9.70;1.00
5023;DHT22;2530;47.990;7.866;2023-03-14T13:46:12;9.80;1.00
5023;DHT22;2530;47.990;7.866;2023-03-14T13:48:44;9.70;1.00
5023;DHT22;2530;47.990;7.866;2023-03-14T13:51:12;9.70;1.00
5023;DHT22;2530;47.990;7.866;2023-03-14T13:53:46;9.70;1.00
5023;DHT22;2530;47.990;7.866;2023-03-14T13:56:12;9.70;1.00
5023;DHT22;2530;47.990;7.866;2023-03-14T13:58:39;9.80;1.00
5023;DHT22;2530;47.990;7.866;2023-03-14T14:01:29;9.80;1.00
5023;DHT22;2530;47.990;7.866;2023-03-14T14:03:57;9.80;1.00
5023;DHT22;2530;47.990;7.866;2023-03-14T14:06:35;9.80;1.00
5023;DHT22;2530;47.990;7.866;2023-03-14T14:09:10;9.70;1.00
5023;DHT22;2530;47.990;7.866;2023-03-14T14:11:38;9.70;1.00
5023;DHT22;2530;47.990;7.866;2023-03-14T14:14:10;9.70;99.90
5023;DHT22;2530;47.990;7.866;2023-03-14T14:16:37;9.60;99.90
5023;DHT22;2530;47.990;7.866;2023-03-14T14:19:03;9.60;99.90
5023;DHT22;2530;47.990;7.866;2023-03-14T14:21:29;9.50;1.00
5023;DHT22;2530;47.990;7.866;2023-03-14T14:23:57;9.20;1.00
5023;DHT22;2530;47.990;7.866;2023-03-14T14:26:23;9.10;1.00
5023;DHT22;2530;47.990;7.866;2023-03-14T14:28:59;9.30;99.90
5023;DHT22;2530;47.990;7.866;2023-03-14T14:31:25;9.20;99.90
5023;DHT22;2530;47.990;7.866;2023-03-14T14:33:58;9.30;99.90
5023;DHT22;2530;47.990;7.866;2023-03-14T14:36:38;9.40;1.00
5023;DHT22;2530;47.990;7.866;2023-03-14T14:41:40;9.70;99.90
5023;DHT22;2530;47.990;7.866;2023-03-14T14:44:06;9.70;84.70
5023;DHT22;2530;47.990;7.866;2023-03-14T14:46:34;9.90;26.60
5023;DHT22;2530;47.990;7.866;2023-03-14T14:49:11;10.50;1.00
5023;DHT22;2530;47.990;7.866;2023-03-14T14:51:48;11.40;1.00
5023;DHT22;2530;47.990;7.866;2023-03-14T14:54:19;11.00;1.00
5023;DHT22;2530;47.990;7.866;2023-03-14T14:56:50;10.60;1.00
5023;DHT22;2530;47.990;7.866;2023-03-14T14:59:27;10.50;1.00
5023;DHT22;2530;47.990;7.866;2023-03-14T15:02:02;10.20;1.00
5023;DHT22;2530;47.990;7.866;2023-03-14T15:04:30;10.10;1.00
5023;DHT22;2530;47.990;7.866;2023-03-14T15:06:56;10.20;1.00
5023;DHT22;2530;47.990;7.866;2023-03-14T15:09:22;10.30;1.00
5023;DHT22;2530;47.990;7.866;2023-03-14T15:11:48;10.80;1.00
5023;DHT22;2530;47.990;7.866;2023-03-14T15:14:14;12.50;99.90
5023;DHT22;2530;47.990;7.866;2023-03-14T15:16:40;12.80;99.90
5023;DHT22;2530;47.990;7.866;2023-03-14T15:19:23;13.70;99.90
5023;DHT22;2530;47.990;7.866;2023-03-14T15:21:50;14.40;99.90
5023;DHT22;2530;47.990;7.866;2023-03-14T15:24:15;15.00;99.90
5023;DHT22;2530;47.990;7.866;2023-03-14T15:26:41;16.00;93.00
5023;DHT22;2530;47.990;7.866;2023-03-14T15:29:08;16.10;81.10
5023;DHT22;2530;47.990;7.866;2023-03-14T15:31:37;14.90;86.00
5023;DHT22;2530;47.990;7.866;2023-03-14T15:34:03;15.00;65.20
5023;DHT22;2530;47.990;7.866;2023-03-14T15:36:31;15.50;60.30
5023;DHT22;2530;47.990;7.866;2023-03-14T15:38:57;14.90;58.70
5023;DHT22;2530;47.990;7.866;2023-03-14T15:41:24;16.00;59.70
5023;DHT22;2530;47.990;7.866;2023-03-14T15:43:50;16.30;48.00
5023;DHT22;2530;47.990;7.866;2023-03-14T15:46:16;16.70;46.50
5023;DHT22;2530;47.990;7.866;2023-03-14T15:48:44;16.00;40.50
5023;DHT22;2530;47.990;7.866;2023-03-14T15:51:10;13.60;39.90
5023;DHT22;2530;47.990;7.866;2023-03-14T15:53:36;12.50;85.20
5023;DHT22;2530;47.990;7.866;2023-03-14T15:56:05;11.50;99.90
5023;DHT22;2530;47.990;7.866;2023-03-14T15:58:31;11.30;99.90
5023;DHT22;2530;47.990;7.866;2023-03-14T16:01:00;11.10;99.90
5023;DHT22;2530;47.990;7.866;2023-03-14T16:03:27;10.90;99.90
5023;DHT22;2530;47.990;7.866;2023-03-14T16:05:53;10.60;99.90
5023;DHT22;2530;47.990;7.866;2023-03-14T16:08:18;10.60;99.90
5023;DHT22;2530;47.990;7.866;2023-03-14T16:10:45;10.50;99.90
5023;DHT22;2530;47.990;7.866;2023-03-14T16:13:11;10.50;1.00
5023;DHT22;2530;47.990;7.866;2023-03-14T16:15:37;10.40;99.90
5023;DHT22;2530;47.990;7.866;2023-03-14T16:18:03;10.40;1.00
5023;DHT22;2530;47.990;7.866;2023-03-14T16:20:28;10.30;1.00
5023;DHT22;2530;47.990;7.866;2023-03-14T16:22:54;10.20;1.00
5023;DHT22;2530;47.990;7.866;2023-03-14T16:25:21;10.00;1.00
5023;DHT22;2530;47.990;7.866;2023-03-14T16:27:46;9.90;1.00
5023;DHT22;2530;47.990;7.866;2023-03-14T16:30:13;9.90;1.00
5023;DHT22;2530;47.990;7.866;2023-03-14T16:32:38;9.50;99.90
5023;DHT22;2530;47.990;7.866;2023-03-14T16:35:04;9.00;1.00
5023;DHT22;2530;47.990;7.866;2023-03-14T16:37:30;8.70;1.00
5023;DHT22;2530;47.990;7.866;2023-03-14T16:39:56;8.50;1.00
5023;DHT22;2530;47.990;7.866;2023-03-14T16:42:22;8.40;1.00
5023;DHT22;2530;47.990;7.866;2023-03-14T16:44:48;8.40;1.00
5023;DHT22;2530;47.990;7.866;2023-03-14T16:47:13;8.40;1.00
5023;DHT22;2530;47.990;7.866;2023-03-14T16:49:39;8.50;1.00
5023;DHT22;2530;47.990;7.866;2023-03-14T16:52:05;8.50;1.00
5023;DHT22;2530;47.990;7.866;2023-03-14T16:54:32;8.50;1.00
5023;DHT22;2530;47.990;7.866;2023-03-14T16:56:58;8.60;1.00
5023;DHT22;2530;47.990;7.866;2023-03-14T16:59:23;8.60;1.00
5023;DHT22;2530;47.990;7.866;2023-03-14T17:01:50;8.60;99.90
5023;DHT22;2530;47.990;7.866;2023-03-14T17:04:16;8.60;1.00
5023;DHT22;2530;47.990;7.866;2023-03-14T17:06:41;8.50;99.90
5023;DHT22;2530;47.990;7.866;2023-03-14T17:09:09;8.70;99.90
5023;DHT22;2530;47.990;7.866;2023-03-14T17:11:35;8.70;99.90
5023;DHT22;2530;47.990;7.866;2023-03-14T17:14:02;8.70;99.90
5023;DHT22;2530;47.990;7.866;2023-03-14T17:16:28;8.60;1.00
5023;DHT22;2530;47.990;7.866;2023-03-14T17:18:54;8.60;1.00
5023;DHT22;2530;47.990;7.866;2023-03-14T17:21:20;8.50;1.00
5023;DHT22;2530;47.990;7.866;2023-03-14T17:23:46;8.50;1.00
5023;DHT22;2530;47.990;7.866;2023-03-14T17:26:12;8.40;1.00
5023;DHT22;2530;47.990;7.866;2023-03-14T17:28:38;8.30;1.00